VLG9FE EBBR-LIRQ
Flight info
| Callsign | VLG9FE |
|---|---|
| Flight time | 1h 30m |
| Altitude | 39000 |
| Route | PITES DCT KRH DCT BATUB DCT TIRUL M738 NATAG DCT LORLO DCT ADOSA DCT LUMAV/N0404F230 Q58 BIKTU |
| Aircraft | A319/M-SDE3FGHIRWY/LB1 |
Departure
| Time | 2026-05-07 15:32 |
|---|---|
| Airport | Brussels Airport (EBBR) |
Arrival
| Time | 2026-05-07 17:02 |
|---|---|
| Airport | Florence Airport, Peretola (LIRQ) |
| Time | Latitude | Longitude | Altitude | Speed | Heading |
|---|---|---|---|---|---|
| 2026-05-07 15:05 | 50.90527 | 4.49029 | 121 ft | 0 kts | 189° |
| 2026-05-07 15:22 | 50.90531 | 4.49030 | 121 ft | 3 kts | 190° |
| 2026-05-07 15:22 | 50.90558 | 4.49038 | 117 ft | 4 kts | 189° |
| 2026-05-07 15:23 | 50.90584 | 4.49043 | 119 ft | 4 kts | 183° |
| 2026-05-07 15:23 | 50.90611 | 4.49043 | 119 ft | 4 kts | 171° |
| 2026-05-07 15:23 | 50.90622 | 4.49040 | 118 ft | 1 kts | 169° |
| 2026-05-07 15:23 | 50.90623 | 4.49039 | 117 ft | 0 kts | 169° |
| 2026-05-07 15:27 | 50.90622 | 4.49040 | 118 ft | 0 kts | 163° |
| 2026-05-07 15:27 | 50.90628 | 4.49063 | 118 ft | 4 kts | 48° |
| 2026-05-07 15:28 | 50.90649 | 4.49097 | 119 ft | 6 kts | 64° |
| 2026-05-07 15:28 | 50.90681 | 4.49200 | 120 ft | 13 kts | 64° |
| 2026-05-07 15:28 | 50.90727 | 4.49352 | 123 ft | 16 kts | 65° |
| 2026-05-07 15:28 | 50.90773 | 4.49511 | 121 ft | 16 kts | 65° |
| 2026-05-07 15:29 | 50.90820 | 4.49676 | 121 ft | 17 kts | 64° |
| 2026-05-07 15:29 | 50.90910 | 4.49782 | 123 ft | 17 kts | 21° |
| 2026-05-07 15:29 | 50.90990 | 4.49869 | 119 ft | 14 kts | 37° |
| 2026-05-07 15:29 | 50.91087 | 4.49937 | 120 ft | 16 kts | 10° |
| 2026-05-07 15:30 | 50.91133 | 4.49872 | 118 ft | 0 kts | 245° |
| 2026-05-07 15:30 | 50.91131 | 4.49867 | 118 ft | 0 kts | 245° |
| 2026-05-07 15:30 | 50.91131 | 4.49866 | 118 ft | 0 kts | 245° |
| 2026-05-07 15:31 | 50.91130 | 4.49864 | 118 ft | 1 kts | 245° |
| 2026-05-07 15:31 | 50.91061 | 4.49627 | 118 ft | 64 kts | 245° |
| 2026-05-07 15:32 | 50.90768 | 4.48605 | 118 ft | 137 kts | 246° |
| 2026-05-07 15:32 | 50.90317 | 4.47034 | 482 ft | 159 kts | 246° |
| 2026-05-07 15:32 | 50.89860 | 4.45460 | 1318 ft | 156 kts | 245° |
| 2026-05-07 15:32 | 50.89386 | 4.43915 | 2061 ft | 158 kts | 239° |
| 2026-05-07 15:33 | 50.88462 | 4.42855 | 2474 ft | 180 kts | 194° |
| 2026-05-07 15:33 | 50.87153 | 4.43059 | 2830 ft | 205 kts | 154° |
| 2026-05-07 15:33 | 50.86040 | 4.44629 | 3214 ft | 229 kts | 131° |
| 2026-05-07 15:33 | 50.84930 | 4.46614 | 3782 ft | 252 kts | 131° |
| 2026-05-07 15:34 | 50.83741 | 4.48740 | 4701 ft | 262 kts | 131° |
| 2026-05-07 15:34 | 50.82512 | 4.50921 | 5616 ft | 270 kts | 131° |
| 2026-05-07 15:34 | 50.81254 | 4.53139 | 6393 ft | 272 kts | 132° |
| 2026-05-07 15:34 | 50.79981 | 4.55369 | 7438 ft | 275 kts | 133° |
| 2026-05-07 15:35 | 50.78687 | 4.57626 | 8449 ft | 279 kts | 133° |
| 2026-05-07 15:35 | 50.77370 | 4.59918 | 9447 ft | 284 kts | 133° |
| 2026-05-07 15:35 | 50.76034 | 4.62247 | 10326 ft | 293 kts | 133° |
| 2026-05-07 15:35 | 50.74609 | 4.64737 | 10708 ft | 317 kts | 133° |
| 2026-05-07 15:36 | 50.73109 | 4.67397 | 11134 ft | 337 kts | 132° |
| 2026-05-07 15:36 | 50.71543 | 4.70214 | 11883 ft | 345 kts | 132° |
| 2026-05-07 15:36 | 50.70055 | 4.73223 | 12704 ft | 351 kts | 123° |
| 2026-05-07 15:36 | 50.68940 | 4.76675 | 13544 ft | 357 kts | 111° |
| 2026-05-07 15:37 | 50.68204 | 4.80459 | 14311 ft | 362 kts | 106° |
| 2026-05-07 15:37 | 50.67517 | 4.84308 | 15047 ft | 367 kts | 106° |
| 2026-05-07 15:37 | 50.66745 | 4.88157 | 15766 ft | 371 kts | 112° |
| 2026-05-07 15:37 | 50.65546 | 4.91776 | 16481 ft | 374 kts | 124° |
| 2026-05-07 15:38 | 50.63913 | 4.94984 | 17203 ft | 377 kts | 135° |
| 2026-05-07 15:38 | 50.62030 | 4.97896 | 17932 ft | 381 kts | 137° |
| 2026-05-07 15:38 | 50.60126 | 5.00833 | 18618 ft | 385 kts | 137° |
| 2026-05-07 15:38 | 50.58208 | 5.03805 | 19251 ft | 389 kts | 137° |
| 2026-05-07 15:39 | 50.56270 | 5.06812 | 19885 ft | 393 kts | 136° |
| 2026-05-07 15:39 | 50.54315 | 5.09842 | 20527 ft | 396 kts | 137° |
| 2026-05-07 15:39 | 50.52344 | 5.12892 | 21169 ft | 400 kts | 137° |
| 2026-05-07 15:39 | 50.50350 | 5.15969 | 21809 ft | 403 kts | 137° |
| 2026-05-07 15:40 | 50.48333 | 5.19069 | 22415 ft | 407 kts | 137° |
| 2026-05-07 15:40 | 50.46304 | 5.22187 | 23010 ft | 410 kts | 137° |
| 2026-05-07 15:40 | 50.44254 | 5.25334 | 23592 ft | 414 kts | 137° |
| 2026-05-07 15:40 | 50.42190 | 5.28504 | 24075 ft | 417 kts | 137° |
| 2026-05-07 15:41 | 50.40108 | 5.31701 | 24554 ft | 420 kts | 137° |
| 2026-05-07 15:41 | 50.38008 | 5.34915 | 25022 ft | 423 kts | 137° |
| 2026-05-07 15:41 | 50.35894 | 5.38142 | 25488 ft | 426 kts | 137° |
| 2026-05-07 15:41 | 50.33761 | 5.41393 | 25951 ft | 429 kts | 137° |
| 2026-05-07 15:42 | 50.31614 | 5.44661 | 26415 ft | 432 kts | 137° |
| 2026-05-07 15:42 | 50.29484 | 5.47899 | 26856 ft | 435 kts | 137° |
| 2026-05-07 15:42 | 50.27282 | 5.51250 | 27320 ft | 438 kts | 137° |
| 2026-05-07 15:42 | 50.25123 | 5.54538 | 27759 ft | 441 kts | 137° |
| 2026-05-07 15:43 | 50.22920 | 5.57885 | 28202 ft | 443 kts | 137° |
| 2026-05-07 15:43 | 50.20693 | 5.61252 | 28631 ft | 446 kts | 137° |
| 2026-05-07 15:43 | 50.18455 | 5.64626 | 29048 ft | 449 kts | 137° |
| 2026-05-07 15:43 | 50.16196 | 5.68025 | 29460 ft | 452 kts | 137° |
| 2026-05-07 15:44 | 50.13927 | 5.71439 | 29849 ft | 455 kts | 137° |
| 2026-05-07 15:44 | 50.11645 | 5.74870 | 30218 ft | 458 kts | 137° |
| 2026-05-07 15:44 | 50.10094 | 5.77204 | 30430 ft | 459 kts | 137° |
| 2026-05-07 15:44 | 50.07819 | 5.80626 | 30742 ft | 462 kts | 137° |
| 2026-05-07 15:45 | 50.05496 | 5.84109 | 31049 ft | 465 kts | 137° |
| 2026-05-07 15:45 | 50.03166 | 5.87597 | 31462 ft | 464 kts | 137° |
| 2026-05-07 15:45 | 50.00844 | 5.91069 | 31918 ft | 463 kts | 137° |
| 2026-05-07 15:45 | 49.98524 | 5.94534 | 32344 ft | 463 kts | 137° |
| 2026-05-07 15:46 | 49.93880 | 6.01463 | 33214 ft | 463 kts | 137° |
| 2026-05-07 15:46 | 49.91556 | 6.04921 | 33650 ft | 462 kts | 138° |
| 2026-05-07 15:46 | 49.89233 | 6.08373 | 34077 ft | 462 kts | 138° |
| 2026-05-07 15:47 | 49.87007 | 6.11970 | 34441 ft | 463 kts | 131° |
| 2026-05-07 15:47 | 49.85132 | 6.16042 | 34809 ft | 465 kts | 122° |
| 2026-05-07 15:47 | 49.83595 | 6.20449 | 35172 ft | 465 kts | 118° |
| 2026-05-07 15:47 | 49.82097 | 6.24887 | 35524 ft | 465 kts | 118° |
| 2026-05-07 15:48 | 49.80595 | 6.29319 | 35850 ft | 464 kts | 119° |
| 2026-05-07 15:48 | 49.79088 | 6.33747 | 36168 ft | 464 kts | 119° |
| 2026-05-07 15:48 | 49.77582 | 6.38159 | 36479 ft | 464 kts | 119° |
| 2026-05-07 15:48 | 49.76068 | 6.42577 | 36782 ft | 464 kts | 119° |
| 2026-05-07 15:49 | 49.74553 | 6.46982 | 37089 ft | 464 kts | 119° |
| 2026-05-07 15:49 | 49.73038 | 6.51380 | 37387 ft | 464 kts | 119° |
| 2026-05-07 15:49 | 49.71529 | 6.55772 | 37684 ft | 463 kts | 119° |
| 2026-05-07 15:49 | 49.70023 | 6.60173 | 37964 ft | 463 kts | 119° |
| 2026-05-07 15:50 | 49.68516 | 6.64576 | 38251 ft | 463 kts | 119° |
| 2026-05-07 15:50 | 49.67009 | 6.68971 | 38535 ft | 463 kts | 120° |
| 2026-05-07 15:50 | 49.65515 | 6.73313 | 38777 ft | 463 kts | 120° |
| 2026-05-07 15:50 | 49.64003 | 6.77693 | 38957 ft | 463 kts | 120° |
| 2026-05-07 15:51 | 49.62485 | 6.82080 | 39023 ft | 464 kts | 120° |
| 2026-05-07 15:51 | 49.59441 | 6.90850 | 39037 ft | 464 kts | 120° |
| 2026-05-07 15:52 | 49.56393 | 6.99621 | 39041 ft | 464 kts | 120° |
| 2026-05-07 15:52 | 49.53342 | 7.08376 | 39043 ft | 464 kts | 120° |
| 2026-05-07 15:53 | 49.50268 | 7.17120 | 39047 ft | 464 kts | 120° |
| 2026-05-07 15:53 | 49.47187 | 7.25862 | 39051 ft | 465 kts | 120° |
| 2026-05-07 15:54 | 49.44100 | 7.34619 | 39061 ft | 466 kts | 120° |
| 2026-05-07 15:54 | 49.41009 | 7.43378 | 39063 ft | 466 kts | 120° |
| 2026-05-07 15:55 | 49.37900 | 7.52123 | 39067 ft | 467 kts | 120° |
| 2026-05-07 15:55 | 49.34776 | 7.60881 | 39069 ft | 467 kts | 120° |
| 2026-05-07 15:56 | 49.31676 | 7.69553 | 39071 ft | 468 kts | 121° |
| 2026-05-07 15:56 | 49.28541 | 7.78292 | 39071 ft | 468 kts | 121° |
| 2026-05-07 15:57 | 49.25403 | 7.87021 | 39072 ft | 468 kts | 121° |
| 2026-05-07 15:57 | 49.22253 | 7.95742 | 39074 ft | 468 kts | 121° |
| 2026-05-07 15:58 | 49.19091 | 8.04462 | 39072 ft | 469 kts | 121° |
| 2026-05-07 15:58 | 49.15926 | 8.13180 | 39069 ft | 469 kts | 121° |
| 2026-05-07 15:59 | 49.12748 | 8.21880 | 39065 ft | 469 kts | 121° |
| 2026-05-07 15:59 | 49.09565 | 8.30567 | 39066 ft | 469 kts | 121° |
| 2026-05-07 16:00 | 49.06375 | 8.39237 | 39061 ft | 469 kts | 121° |
| 2026-05-07 16:00 | 49.03172 | 8.47922 | 39065 ft | 470 kts | 121° |
| 2026-05-07 16:01 | 48.99765 | 8.56297 | 39062 ft | 467 kts | 131° |
| 2026-05-07 16:01 | 48.95023 | 8.62846 | 39058 ft | 460 kts | 149° |
| 2026-05-07 16:02 | 48.89703 | 8.68270 | 39056 ft | 460 kts | 149° |
| 2026-05-07 16:02 | 48.84384 | 8.73712 | 39050 ft | 461 kts | 149° |
| 2026-05-07 16:03 | 48.79070 | 8.79152 | 39054 ft | 461 kts | 149° |
| 2026-05-07 16:03 | 48.73750 | 8.84579 | 39040 ft | 460 kts | 149° |
| 2026-05-07 16:04 | 48.68441 | 8.89969 | 39042 ft | 460 kts | 149° |
| 2026-05-07 16:04 | 48.63124 | 8.95352 | 39045 ft | 460 kts | 149° |
| 2026-05-07 16:05 | 48.57810 | 9.00726 | 39042 ft | 460 kts | 149° |
| 2026-05-07 16:05 | 48.52491 | 9.06096 | 39049 ft | 460 kts | 149° |
| 2026-05-07 16:06 | 48.47162 | 9.11447 | 39046 ft | 460 kts | 149° |
| 2026-05-07 16:06 | 48.41828 | 9.16785 | 39044 ft | 461 kts | 149° |
| 2026-05-07 16:07 | 48.36475 | 9.22136 | 39038 ft | 461 kts | 149° |
| 2026-05-07 16:07 | 48.31174 | 9.27437 | 39030 ft | 461 kts | 149° |
| 2026-05-07 16:08 | 48.25789 | 9.32794 | 39033 ft | 461 kts | 149° |
| 2026-05-07 16:08 | 48.20472 | 9.38071 | 39031 ft | 461 kts | 149° |
| 2026-05-07 16:09 | 48.15119 | 9.43381 | 39033 ft | 461 kts | 150° |
| 2026-05-07 16:09 | 48.09852 | 9.48582 | 39039 ft | 462 kts | 150° |
| 2026-05-07 16:10 | 48.04476 | 9.53871 | 39039 ft | 462 kts | 150° |
| 2026-05-07 16:10 | 47.99121 | 9.59162 | 39044 ft | 462 kts | 149° |
| 2026-05-07 16:11 | 47.93815 | 9.64595 | 39045 ft | 462 kts | 148° |
| 2026-05-07 16:11 | 47.89087 | 9.69491 | 39046 ft | 462 kts | 149° |
| 2026-05-07 16:12 | 47.83706 | 9.75010 | 39044 ft | 462 kts | 149° |
| 2026-05-07 16:12 | 47.78392 | 9.80404 | 39050 ft | 462 kts | 149° |
| 2026-05-07 16:13 | 47.73115 | 9.85741 | 39052 ft | 462 kts | 149° |
| 2026-05-07 16:13 | 47.67829 | 9.91082 | 39055 ft | 462 kts | 149° |
| 2026-05-07 16:14 | 47.62481 | 9.96472 | 39045 ft | 462 kts | 149° |
| 2026-05-07 16:14 | 47.57166 | 10.01815 | 39046 ft | 462 kts | 149° |
| 2026-05-07 16:15 | 47.51846 | 10.07152 | 39049 ft | 461 kts | 149° |
| 2026-05-07 16:15 | 47.46530 | 10.12461 | 39047 ft | 461 kts | 149° |
| 2026-05-07 16:16 | 47.41210 | 10.17769 | 39047 ft | 461 kts | 149° |
| 2026-05-07 16:16 | 47.35895 | 10.23065 | 39038 ft | 461 kts | 150° |
| 2026-05-07 16:17 | 47.30574 | 10.28345 | 39042 ft | 461 kts | 150° |
| 2026-05-07 16:17 | 47.25257 | 10.33615 | 39039 ft | 461 kts | 150° |
| 2026-05-07 16:18 | 47.19934 | 10.38883 | 39031 ft | 460 kts | 150° |
| 2026-05-07 16:18 | 47.14612 | 10.44126 | 39035 ft | 461 kts | 150° |
| 2026-05-07 16:19 | 47.09291 | 10.49356 | 39024 ft | 460 kts | 150° |
| 2026-05-07 16:19 | 47.03714 | 10.53753 | 39019 ft | 451 kts | 165° |
| 2026-05-07 16:20 | 46.97781 | 10.56456 | 39013 ft | 449 kts | 167° |
| 2026-05-07 16:20 | 46.91812 | 10.59159 | 39008 ft | 449 kts | 167° |
| 2026-05-07 16:21 | 46.85844 | 10.61850 | 39009 ft | 449 kts | 167° |
| 2026-05-07 16:21 | 46.79872 | 10.64537 | 39008 ft | 449 kts | 167° |
| 2026-05-07 16:22 | 46.73903 | 10.67213 | 39009 ft | 449 kts | 167° |
| 2026-05-07 16:22 | 46.67902 | 10.69607 | 39011 ft | 445 kts | 171° |
| 2026-05-07 16:23 | 46.61842 | 10.71498 | 39015 ft | 445 kts | 173° |
| 2026-05-07 16:23 | 46.55809 | 10.73314 | 39021 ft | 446 kts | 172° |
| 2026-05-07 16:24 | 46.49701 | 10.75265 | 39042 ft | 447 kts | 172° |
| 2026-05-07 16:24 | 46.43690 | 10.77257 | 39046 ft | 446 kts | 172° |
| 2026-05-07 16:25 | 46.37633 | 10.79250 | 39059 ft | 446 kts | 172° |
| 2026-05-07 16:25 | 46.31674 | 10.81180 | 39063 ft | 446 kts | 172° |
| 2026-05-07 16:26 | 46.25625 | 10.83125 | 39064 ft | 445 kts | 172° |
| 2026-05-07 16:26 | 46.19577 | 10.85066 | 39068 ft | 445 kts | 172° |
| 2026-05-07 16:27 | 46.13542 | 10.87010 | 39065 ft | 444 kts | 172° |
| 2026-05-07 16:27 | 46.07517 | 10.88949 | 39060 ft | 443 kts | 172° |
| 2026-05-07 16:28 | 46.01490 | 10.90873 | 39051 ft | 443 kts | 172° |
| 2026-05-07 16:28 | 45.95476 | 10.92796 | 39038 ft | 443 kts | 172° |
| 2026-05-07 16:29 | 45.89499 | 10.94702 | 39024 ft | 443 kts | 173° |
| 2026-05-07 16:29 | 45.83484 | 10.96612 | 39012 ft | 442 kts | 173° |
| 2026-05-07 16:30 | 45.77480 | 10.98525 | 39000 ft | 442 kts | 173° |
| 2026-05-07 16:30 | 45.71666 | 11.00364 | 38998 ft | 441 kts | 173° |
| 2026-05-07 16:31 | 45.65598 | 11.02330 | 38991 ft | 443 kts | 168° |
| 2026-05-07 16:31 | 45.59994 | 11.05844 | 38985 ft | 450 kts | 158° |
| 2026-05-07 16:31 | 45.57159 | 11.07900 | 38685 ft | 448 kts | 159° |
| 2026-05-07 16:32 | 45.54387 | 11.09905 | 38042 ft | 447 kts | 159° |
| 2026-05-07 16:32 | 45.51615 | 11.11907 | 37348 ft | 445 kts | 159° |
| 2026-05-07 16:32 | 45.48851 | 11.13894 | 36671 ft | 444 kts | 160° |
| 2026-05-07 16:32 | 45.46085 | 11.15873 | 36004 ft | 444 kts | 160° |
| 2026-05-07 16:33 | 45.43323 | 11.17842 | 35316 ft | 443 kts | 161° |
| 2026-05-07 16:33 | 45.40603 | 11.19784 | 34637 ft | 443 kts | 161° |
| 2026-05-07 16:33 | 45.37853 | 11.21746 | 33956 ft | 442 kts | 161° |
| 2026-05-07 16:33 | 45.35102 | 11.23708 | 33117 ft | 442 kts | 161° |
| 2026-05-07 16:34 | 45.32360 | 11.25664 | 32207 ft | 444 kts | 161° |
| 2026-05-07 16:34 | 45.29589 | 11.27640 | 31258 ft | 446 kts | 161° |
| 2026-05-07 16:34 | 45.27753 | 11.28948 | 30618 ft | 448 kts | 161° |
| 2026-05-07 16:34 | 45.24968 | 11.30931 | 29858 ft | 446 kts | 161° |
| 2026-05-07 16:35 | 45.22212 | 11.32897 | 29080 ft | 441 kts | 161° |
| 2026-05-07 16:35 | 45.19479 | 11.34846 | 28322 ft | 437 kts | 161° |
| 2026-05-07 16:35 | 45.16777 | 11.36771 | 27607 ft | 432 kts | 160° |
| 2026-05-07 16:35 | 45.14103 | 11.38671 | 26928 ft | 428 kts | 160° |
| 2026-05-07 16:36 | 45.11453 | 11.40546 | 26253 ft | 424 kts | 160° |
| 2026-05-07 16:36 | 45.08822 | 11.42403 | 25592 ft | 420 kts | 160° |
| 2026-05-07 16:36 | 45.06223 | 11.44238 | 24956 ft | 417 kts | 160° |
| 2026-05-07 16:36 | 45.03635 | 11.46064 | 24322 ft | 413 kts | 160° |
| 2026-05-07 16:37 | 45.01073 | 11.47869 | 23713 ft | 410 kts | 159° |
| 2026-05-07 16:37 | 44.98521 | 11.49664 | 23153 ft | 408 kts | 159° |
| 2026-05-07 16:37 | 44.95980 | 11.51447 | 22980 ft | 408 kts | 159° |
| 2026-05-07 16:37 | 44.93438 | 11.53228 | 23015 ft | 409 kts | 159° |
| 2026-05-07 16:38 | 44.90913 | 11.54994 | 23010 ft | 409 kts | 159° |
| 2026-05-07 16:38 | 44.88367 | 11.56777 | 23013 ft | 409 kts | 159° |
| 2026-05-07 16:38 | 44.85817 | 11.58565 | 23010 ft | 409 kts | 159° |
| 2026-05-07 16:38 | 44.83212 | 11.60143 | 23009 ft | 403 kts | 167° |
| 2026-05-07 16:39 | 44.80510 | 11.61051 | 22978 ft | 396 kts | 177° |
| 2026-05-07 16:39 | 44.77808 | 11.61306 | 22423 ft | 385 kts | 186° |
| 2026-05-07 16:39 | 44.75153 | 11.61059 | 21811 ft | 380 kts | 189° |
| 2026-05-07 16:39 | 44.72520 | 11.60785 | 21242 ft | 378 kts | 189° |
| 2026-05-07 16:40 | 44.69905 | 11.60528 | 20703 ft | 376 kts | 188° |
| 2026-05-07 16:40 | 44.67304 | 11.60284 | 20151 ft | 374 kts | 188° |
| 2026-05-07 16:40 | 44.64719 | 11.60040 | 19626 ft | 371 kts | 188° |
| 2026-05-07 16:40 | 44.62146 | 11.59792 | 19090 ft | 369 kts | 188° |
| 2026-05-07 16:41 | 44.59592 | 11.59548 | 18562 ft | 367 kts | 188° |
| 2026-05-07 16:41 | 44.57083 | 11.59306 | 18011 ft | 365 kts | 188° |
| 2026-05-07 16:41 | 44.54526 | 11.59058 | 17428 ft | 362 kts | 187° |
| 2026-05-07 16:41 | 44.52058 | 11.58822 | 16886 ft | 359 kts | 187° |
| 2026-05-07 16:42 | 44.49575 | 11.58589 | 16333 ft | 356 kts | 187° |
| 2026-05-07 16:42 | 44.47110 | 11.58359 | 15797 ft | 354 kts | 187° |
| 2026-05-07 16:42 | 44.44663 | 11.58127 | 15273 ft | 351 kts | 187° |
| 2026-05-07 16:42 | 44.42233 | 11.57893 | 14747 ft | 349 kts | 187° |
| 2026-05-07 16:43 | 44.39822 | 11.57664 | 14228 ft | 346 kts | 186° |
| 2026-05-07 16:43 | 44.37429 | 11.57437 | 13747 ft | 344 kts | 186° |
| 2026-05-07 16:43 | 44.35050 | 11.57212 | 13181 ft | 342 kts | 186° |
| 2026-05-07 16:43 | 44.32684 | 11.56986 | 12991 ft | 342 kts | 186° |
| 2026-05-07 16:44 | 44.30312 | 11.56759 | 13016 ft | 342 kts | 186° |
| 2026-05-07 16:44 | 44.27937 | 11.56535 | 13022 ft | 342 kts | 186° |
| 2026-05-07 16:44 | 44.25562 | 11.56311 | 13032 ft | 342 kts | 186° |
| 2026-05-07 16:44 | 44.23263 | 11.56091 | 13035 ft | 342 kts | 186° |
| 2026-05-07 16:45 | 44.20891 | 11.55865 | 13035 ft | 341 kts | 186° |
| 2026-05-07 16:45 | 44.18524 | 11.55641 | 13035 ft | 341 kts | 186° |
| 2026-05-07 16:45 | 44.16153 | 11.55418 | 13030 ft | 341 kts | 186° |
| 2026-05-07 16:45 | 44.13820 | 11.55199 | 13027 ft | 341 kts | 186° |
| 2026-05-07 16:46 | 44.11459 | 11.54978 | 13020 ft | 339 kts | 186° |
| 2026-05-07 16:46 | 44.09167 | 11.54765 | 13014 ft | 321 kts | 186° |
| 2026-05-07 16:46 | 44.06999 | 11.54565 | 13011 ft | 304 kts | 187° |
| 2026-05-07 16:46 | 44.04959 | 11.54376 | 13006 ft | 292 kts | 187° |
| 2026-05-07 16:47 | 44.02943 | 11.54186 | 12998 ft | 288 kts | 187° |
| 2026-05-07 16:47 | 44.00978 | 11.53816 | 12999 ft | 284 kts | 196° |
| 2026-05-07 16:47 | 43.99125 | 11.52901 | 12957 ft | 281 kts | 207° |
| 2026-05-07 16:47 | 43.97445 | 11.51555 | 12608 ft | 278 kts | 213° |
| 2026-05-07 16:48 | 43.95806 | 11.50143 | 12264 ft | 277 kts | 213° |
| 2026-05-07 16:48 | 43.94171 | 11.48736 | 11915 ft | 275 kts | 213° |
| 2026-05-07 16:48 | 43.92548 | 11.47343 | 11545 ft | 274 kts | 213° |
| 2026-05-07 16:48 | 43.90929 | 11.45954 | 11166 ft | 273 kts | 212° |
| 2026-05-07 16:49 | 43.89323 | 11.44581 | 10977 ft | 271 kts | 212° |
| 2026-05-07 16:49 | 43.87714 | 11.43208 | 10983 ft | 273 kts | 212° |
| 2026-05-07 16:49 | 43.86098 | 11.41830 | 10978 ft | 273 kts | 212° |
| 2026-05-07 16:49 | 43.84480 | 11.40448 | 10980 ft | 273 kts | 212° |
| 2026-05-07 16:50 | 43.82866 | 11.39068 | 10978 ft | 273 kts | 212° |
| 2026-05-07 16:50 | 43.81240 | 11.37680 | 10973 ft | 275 kts | 212° |
| 2026-05-07 16:50 | 43.79625 | 11.36304 | 10730 ft | 272 kts | 212° |
| 2026-05-07 16:50 | 43.78018 | 11.34936 | 10374 ft | 269 kts | 212° |
| 2026-05-07 16:51 | 43.76425 | 11.33579 | 10016 ft | 268 kts | 213° |
| 2026-05-07 16:51 | 43.74988 | 11.31954 | 9623 ft | 267 kts | 226° |
| 2026-05-07 16:51 | 43.73756 | 11.30047 | 9217 ft | 265 kts | 228° |
| 2026-05-07 16:51 | 43.72531 | 11.28145 | 8803 ft | 264 kts | 228° |
| 2026-05-07 16:52 | 43.71326 | 11.26277 | 8406 ft | 262 kts | 228° |
| 2026-05-07 16:52 | 43.70113 | 11.24397 | 7984 ft | 262 kts | 228° |
| 2026-05-07 16:52 | 43.68902 | 11.22527 | 7613 ft | 260 kts | 227° |
| 2026-05-07 16:52 | 43.67703 | 11.20680 | 7219 ft | 259 kts | 227° |
| 2026-05-07 16:53 | 43.66497 | 11.18824 | 6787 ft | 258 kts | 228° |
| 2026-05-07 16:53 | 43.65298 | 11.16979 | 6393 ft | 257 kts | 227° |
| 2026-05-07 16:53 | 43.64128 | 11.15176 | 6263 ft | 245 kts | 227° |
| 2026-05-07 16:53 | 43.63015 | 11.13470 | 6130 ft | 232 kts | 227° |
| 2026-05-07 16:54 | 43.61955 | 11.11855 | 6004 ft | 222 kts | 227° |
| 2026-05-07 16:54 | 43.60938 | 11.10307 | 5840 ft | 214 kts | 227° |
| 2026-05-07 16:54 | 43.59946 | 11.08797 | 5555 ft | 211 kts | 227° |
| 2026-05-07 16:54 | 43.58958 | 11.07292 | 5268 ft | 211 kts | 227° |
| 2026-05-07 16:55 | 43.57974 | 11.05787 | 4996 ft | 211 kts | 228° |
| 2026-05-07 16:55 | 43.56996 | 11.04284 | 4693 ft | 210 kts | 228° |
| 2026-05-07 16:55 | 43.56143 | 11.02654 | 4384 ft | 210 kts | 246° |
| 2026-05-07 16:55 | 43.55927 | 11.00737 | 4253 ft | 205 kts | 273° |
| 2026-05-07 16:56 | 43.56425 | 10.98913 | 4124 ft | 202 kts | 302° |
| 2026-05-07 16:56 | 43.57464 | 10.97706 | 4024 ft | 197 kts | 330° |
| 2026-05-07 16:56 | 43.59995 | 10.97438 | 3410 ft | 177 kts | 0° |
| 2026-05-07 16:57 | 43.61208 | 10.97543 | 3037 ft | 173 kts | 0° |
| 2026-05-07 16:57 | 43.62458 | 10.97647 | 3019 ft | 184 kts | 0° |
| 2026-05-07 16:57 | 43.63747 | 10.97755 | 3017 ft | 186 kts | 0° |
| 2026-05-07 16:57 | 43.65047 | 10.97872 | 3009 ft | 188 kts | 0° |
| 2026-05-07 16:58 | 43.66317 | 10.98357 | 3020 ft | 192 kts | 24° |
| 2026-05-07 16:58 | 43.67361 | 10.99505 | 3015 ft | 194 kts | 48° |
| 2026-05-07 16:58 | 43.68259 | 11.00885 | 3012 ft | 192 kts | 48° |
| 2026-05-07 16:58 | 43.69146 | 11.02247 | 3012 ft | 190 kts | 48° |
| 2026-05-07 16:59 | 43.70033 | 11.03608 | 3003 ft | 191 kts | 48° |
| 2026-05-07 16:59 | 43.70918 | 11.04967 | 2938 ft | 189 kts | 49° |
| 2026-05-07 16:59 | 43.71797 | 11.06319 | 2745 ft | 190 kts | 48° |
| 2026-05-07 16:59 | 43.72658 | 11.07643 | 2513 ft | 189 kts | 49° |
| 2026-05-07 17:00 | 43.73532 | 11.08986 | 2265 ft | 186 kts | 48° |
| 2026-05-07 17:00 | 43.74399 | 11.10320 | 2014 ft | 187 kts | 48° |
| 2026-05-07 17:00 | 43.75252 | 11.11635 | 1771 ft | 184 kts | 48° |
| 2026-05-07 17:00 | 43.76110 | 11.12955 | 1513 ft | 185 kts | 47° |
| 2026-05-07 17:01 | 43.76954 | 11.14256 | 1238 ft | 182 kts | 46° |
| 2026-05-07 17:01 | 43.77793 | 11.15549 | 982 ft | 177 kts | 48° |
| 2026-05-07 17:01 | 43.78564 | 11.16741 | 750 ft | 158 kts | 46° |
| 2026-05-07 17:01 | 43.79279 | 11.17844 | 553 ft | 149 kts | 46° |
| 2026-05-07 17:02 | 43.79958 | 11.18890 | 368 ft | 145 kts | 46° |
| 2026-05-07 17:02 | 43.80630 | 11.19927 | 176 ft | 145 kts | 46° |
| 2026-05-07 17:02 | 43.81185 | 11.20771 | 141 ft | 57 kts | 50° |
| 2026-05-07 17:02 | 43.81388 | 11.21100 | 148 ft | 42 kts | 48° |
| 2026-05-07 17:03 | 43.81459 | 11.21358 | 150 ft | 22 kts | 141° |
| 2026-05-07 17:03 | 43.81345 | 11.21354 | 151 ft | 16 kts | 220° |
| 2026-05-07 17:03 | 43.81271 | 11.21239 | 150 ft | 12 kts | 234° |
| 2026-05-07 17:03 | 43.81264 | 11.21222 | 150 ft | 0 kts | 243° |
| 2026-05-07 17:10 | 43.81264 | 11.21221 | 150 ft | 0 kts | 243° |
| 2026-05-07 17:11 | 43.81258 | 11.21182 | 149 ft | 10 kts | 266° |
| 2026-05-07 17:11 | 43.81261 | 11.21068 | 149 ft | 13 kts | 274° |
| 2026-05-07 17:11 | 43.81262 | 11.20915 | 146 ft | 18 kts | 251° |
| 2026-05-07 17:11 | 43.81170 | 11.20769 | 141 ft | 23 kts | 228° |
| 2026-05-07 17:12 | 43.81057 | 11.20594 | 138 ft | 26 kts | 228° |
| 2026-05-07 17:12 | 43.80933 | 11.20404 | 137 ft | 27 kts | 228° |
| 2026-05-07 17:12 | 43.80806 | 11.20210 | 137 ft | 27 kts | 228° |
| 2026-05-07 17:12 | 43.80667 | 11.20033 | 135 ft | 28 kts | 197° |
| 2026-05-07 17:13 | 43.80523 | 11.19995 | 136 ft | 12 kts | 151° |
| 2026-05-07 17:13 | 43.80476 | 11.20062 | 136 ft | 9 kts | 134° |
| 2026-05-07 17:13 | 43.80424 | 11.20100 | 135 ft | 5 kts | 190° |
| 2026-05-07 17:13 | 43.80403 | 11.20097 | 135 ft | 1 kts | 172° |
| 2026-05-07 17:14 | 43.80396 | 11.20107 | 135 ft | 1 kts | 104° |
| 2026-05-07 17:14 | 43.80396 | 11.20109 | 135 ft | 0 kts | 95° |
| 2026-05-07 17:14 | 43.80396 | 11.20097 | 135 ft | 3 kts | 79° |
| 2026-05-07 17:14 | 43.80394 | 11.20092 | 135 ft | 2 kts | 103° |
| 2026-05-07 17:15 | 43.80392 | 11.20102 | 135 ft | 0 kts | 103° |
| 2026-05-07 17:18 | 43.80381 | 11.20034 | 135 ft | 0 kts | 267° |